Time;durP1;ratioP1;P1;durP2;ratioP2;P2;SDS_P1;SDS_P2;PMS_P1;PMS_P2;Temp;Humidity;BMP_temperature;BMP_pressure;BME280_temperature;BME280_humidity;BME280_pressure;Samples;Min_cycle;Max_cycle;Signal;HPM_P1;HPM_P2
2020/12/08 00:00:44;;;;;;;28.97;11.60;;;4.00;90.70;;;;;;5033351;28;20657;-73
2020/12/08 00:03:10;;;;;;;23.50;11.10;;;4.00;91.00;;;;;;5033078;28;20455;-74
2020/12/08 00:05:35;;;;;;;27.90;11.90;;;4.10;91.00;;;;;;5020153;28;20181;-72
2020/12/08 00:08:04;;;;;;;26.20;11.70;;;4.00;91.00;;;;;;5033886;28;20682;-74
2020/12/08 00:10:30;;;;;;;30.02;12.85;;;4.00;91.10;;;;;;5031810;28;20217;-73
2020/12/08 00:12:56;;;;;;;27.17;11.77;;;4.00;91.10;;;;;;5032833;28;20549;-74
2020/12/08 00:15:22;;;;;;;30.80;12.10;;;4.00;91.20;;;;;;5032172;28;20473;-74
2020/12/08 00:17:47;;;;;;;24.60;11.07;;;4.00;91.10;;;;;;5032227;28;20186;-72
2020/12/08 00:20:16;;;;;;;29.83;12.10;;;4.00;91.00;;;;;;5030695;28;20547;-73
2020/12/08 00:22:41;;;;;;;28.90;13.18;;;4.00;91.20;;;;;;5031290;28;20428;-74
2020/12/08 00:25:08;;;;;;;30.00;14.10;;;3.90;91.40;;;;;;5032314;28;20263;-73
2020/12/08 00:27:36;;;;;;;28.33;12.55;;;4.00;91.60;;;;;;5032194;28;20185;-74
2020/12/08 00:30:09;;;;;;;31.58;13.38;;;4.00;91.60;;;;;;5031787;28;20304;-73
2020/12/08 00:32:43;;;;;;;28.02;11.80;;;4.00;91.60;;;;;;5031324;28;20260;-74
2020/12/08 00:35:12;;;;;;;29.55;11.80;;;4.10;91.20;;;;;;5031968;28;20181;-73
2020/12/08 00:37:43;;;;;;;26.23;12.38;;;4.10;91.00;;;;;;5031492;28;20189;-77
2020/12/08 00:40:09;;;;;;;25.88;11.70;;;4.10;91.10;;;;;;5031618;28;20680;-76
2020/12/08 00:42:39;;;;;;;28.30;12.63;;;4.00;91.20;;;;;;5020179;28;20256;-77
2020/12/08 00:45:08;;;;;;;30.58;13.15;;;4.00;91.20;;;;;;5031970;28;20437;-75
2020/12/08 00:47:34;;;;;;;25.08;12.23;;;4.00;91.30;;;;;;5025944;28;20196;-74
2020/12/08 00:50:00;;;;;;;28.10;12.80;;;3.90;91.60;;;;;;5019174;28;20591;-75
2020/12/08 00:52:26;;;;;;;27.88;12.50;;;4.00;91.70;;;;;;5017554;28;20440;-76
2020/12/08 00:54:52;;;;;;;37.90;14.40;;;4.00;91.60;;;;;;5024166;28;20269;-75
2020/12/08 00:57:24;;;;;;;32.30;14.60;;;4.00;91.60;;;;;;5011940;28;20185;-75
2020/12/08 00:59:50;;;;;;;32.45;13.20;;;4.00;91.60;;;;;;5022326;28;20237;-76
2020/12/08 01:02:18;;;;;;;27.60;12.47;;;4.10;91.50;;;;;;5024261;28;20193;-76
2020/12/08 01:04:45;;;;;;;32.30;13.75;;;4.10;91.30;;;;;;5018389;28;20185;-75
2020/12/08 01:07:12;;;;;;;31.40;13.05;;;4.10;91.20;;;;;;5031470;28;20185;-74
2020/12/08 01:09:38;;;;;;;31.23;14.20;;;4.10;91.00;;;;;;5030823;28;20640;-75
2020/12/08 01:12:05;;;;;;;27.83;12.68;;;4.00;91.10;;;;;;5017647;28;20277;-74
2020/12/08 01:14:32;;;;;;;38.67;15.45;;;4.00;91.20;;;;;;5022737;28;20560;-77
2020/12/08 01:16:59;;;;;;;37.38;15.35;;;4.00;91.30;;;;;;5013161;28;20197;-74
2020/12/08 01:19:25;;;;;;;31.63;13.00;;;4.00;91.20;;;;;;5035262;28;20227;-75
2020/12/08 01:21:52;;;;;;;33.28;13.15;;;4.00;91.30;;;;;;5035182;28;20212;-77
2020/12/08 01:24:19;;;;;;;35.13;14.07;;;4.00;91.20;;;;;;5036243;28;20181;-77
2020/12/08 01:26:45;;;;;;;28.83;12.45;;;4.00;91.20;;;;;;5039405;28;20496;-75
2020/12/08 01:29:11;;;;;;;36.75;14.40;;;4.00;91.20;;;;;;5033548;28;20204;-75
2020/12/08 01:31:37;;;;;;;32.70;13.75;;;4.00;91.50;;;;;;5030519;28;20188;-75
2020/12/08 01:34:03;;;;;;;34.83;14.13;;;4.00;91.60;;;;;;5030284;28;20252;-75
2020/12/08 01:36:28;;;;;;;33.70;13.67;;;4.00;91.60;;;;;;5030463;28;20276;-76
2020/12/08 01:38:54;;;;;;;39.67;15.53;;;4.10;91.30;;;;;;5030533;28;20238;-75
2020/12/08 01:41:20;;;;;;;29.33;13.00;;;4.10;90.80;;;;;;5030366;28;20664;-76
2020/12/08 01:43:50;;;;;;;32.37;13.97;;;4.10;90.80;;;;;;5031866;28;20735;-75
2020/12/08 01:46:18;;;;;;;29.75;13.20;;;4.20;90.60;;;;;;5030078;28;20938;-76
2020/12/08 01:48:46;;;;;;;28.42;12.77;;;4.10;90.50;;;;;;5030805;28;20196;-74
2020/12/08 01:51:13;;;;;;;34.78;14.95;;;4.10;90.60;;;;;;5034283;28;20276;-74
2020/12/08 01:53:39;;;;;;;32.97;13.00;;;4.20;90.40;;;;;;5031842;28;20216;-75
2020/12/08 01:56:04;;;;;;;32.60;14.67;;;4.20;90.30;;;;;;5030494;28;20200;-75
2020/12/08 01:58:30;;;;;;;32.30;13.70;;;4.20;90.30;;;;;;5028132;28;20694;-73
2020/12/08 02:00:56;;;;;;;41.77;16.37;;;4.10;90.30;;;;;;5028927;28;20262;-75
2020/12/08 02:03:21;;;;;;;29.60;13.17;;;4.10;90.40;;;;;;5030299;28;20949;-73
2020/12/08 02:05:47;;;;;;;31.53;13.93;;;4.10;90.60;;;;;;5029922;28;20235;-75
2020/12/08 02:08:13;;;;;;;30.33;13.83;;;4.10;90.60;;;;;;5028776;28;20189;-73
2020/12/08 02:10:38;;;;;;;35.47;15.10;;;4.10;90.60;;;;;;5029810;28;20256;-76
2020/12/08 02:13:06;;;;;;;29.67;13.10;;;4.10;90.50;;;;;;5029652;28;20188;-75
2020/12/08 02:15:32;;;;;;;32.88;13.18;;;4.10;90.40;;;;;;5029628;28;20189;-75
2020/12/08 02:17:58;;;;;;;34.90;13.77;;;4.10;90.60;;;;;;5030150;28;20195;-74
2020/12/08 02:20:27;;;;;;;33.08;14.68;;;4.00;90.70;;;;;;5030981;28;20213;-75
2020/12/08 02:22:57;;;;;;;29.85;13.02;;;4.00;90.80;;;;;;5029290;28;20201;-72
2020/12/08 02:25:23;;;;;;;33.42;14.40;;;4.00;91.30;;;;;;5031464;28;20193;-74
2020/12/08 02:27:50;;;;;;;32.22;13.45;;;3.90;91.40;;;;;;5030347;28;20211;-75
2020/12/08 02:30:15;;;;;;;34.05;14.88;;;3.80;91.70;;;;;;5028412;28;20300;-73
2020/12/08 02:32:41;;;;;;;35.80;13.13;;;3.80;92.00;;;;;;5020650;28;20269;-74
2020/12/08 02:35:08;;;;;;;32.67;13.27;;;3.70;92.30;;;;;;5029611;28;20189;-75
2020/12/08 02:37:37;;;;;;;34.85;14.68;;;3.60;92.30;;;;;;5030023;28;20193;-74
2020/12/08 02:40:04;;;;;;;35.85;13.95;;;3.60;92.60;;;;;;5028221;28;20221;-75
2020/12/08 02:42:30;;;;;;;36.92;14.95;;;3.50;92.70;;;;;;5029611;28;20181;-73
2020/12/08 02:44:56;;;;;;;33.53;13.87;;;3.50;93.00;;;;;;5029234;28;20673;-74
2020/12/08 02:47:22;;;;;;;34.80;14.40;;;3.50;93.20;;;;;;5035845;28;20276;-75
2020/12/08 02:49:48;;;;;;;34.73;14.03;;;3.50;93.40;;;;;;5031004;28;20295;-74
2020/12/08 02:52:13;;;;;;;33.43;13.13;;;3.50;93.50;;;;;;5029953;28;20189;-75
2020/12/08 02:54:39;;;;;;;39.60;15.60;;;3.50;93.40;;;;;;5024304;28;20190;-74
2020/12/08 02:57:08;;;;;;;40.03;14.83;;;3.50;93.40;;;;;;5021250;28;20629;-75
2020/12/08 02:59:36;;;;;;;39.65;15.75;;;3.60;93.30;;;;;;5029392;28;20781;-75
2020/12/08 03:02:02;;;;;;;34.35;13.52;;;3.60;93.20;;;;;;5029611;28;20189;-76
2020/12/08 03:04:28;;;;;;;34.23;13.27;;;3.60;93.00;;;;;;5028641;28;20197;-74
2020/12/08 03:06:54;;;;;;;41.23;15.40;;;3.60;92.90;;;;;;5029968;28;20203;-75
2020/12/08 03:09:19;;;;;;;35.93;13.57;;;3.60;92.90;;;;;;5030238;28;20459;-74
2020/12/08 03:11:45;;;;;;;34.70;14.60;;;3.50;92.90;;;;;;5034198;28;20185;-76
2020/12/08 03:14:11;;;;;;;39.37;15.67;;;3.50;93.00;;;;;;5035977;28;20196;-73
2020/12/08 03:16:37;;;;;;;32.77;13.80;;;3.50;92.90;;;;;;5033899;28;20431;-74
2020/12/08 03:19:03;;;;;;;37.90;14.73;;;3.50;92.80;;;;;;5032705;28;20771;-74
2020/12/08 03:21:35;;;;;;;36.88;15.52;;;3.40;92.90;;;;;;5032941;28;20189;-74
2020/12/08 03:24:02;;;;;;;35.60;15.45;;;3.40;92.90;;;;;;5032489;28;20188;-75
2020/12/08 03:26:27;;;;;;;33.17;14.10;;;3.30;93.10;;;;;;5032586;28;20216;-74
2020/12/08 03:28:53;;;;;;;34.70;13.50;;;3.30;93.30;;;;;;5031623;28;20228;-75
2020/12/08 03:31:20;;;;;;;34.92;13.13;;;3.20;93.40;;;;;;5032089;28;20804;-74
2020/12/08 03:33:46;;;;;;;40.40;15.02;;;3.20;93.40;;;;;;5035725;28;20278;-74
2020/12/08 03:36:12;;;;;;;43.20;15.10;;;3.10;93.40;;;;;;5035194;28;20185;-75
2020/12/08 03:38:40;;;;;;;34.40;16.20;;;3.10;93.60;;;;;;5034150;28;20443;-75
2020/12/08 03:41:06;;;;;;;37.60;15.27;;;3.00;93.40;;;;;;5034254;28;20317;-75
2020/12/08 03:43:32;;;;;;;37.87;15.00;;;2.90;93.80;;;;;;5034100;28;20228;-74
2020/12/08 03:45:58;;;;;;;38.53;15.77;;;2.90;94.10;;;;;;5019287;28;20433;-74
2020/12/08 03:48:24;;;;;;;41.37;16.40;;;2.90;94.20;;;;;;5031712;28;20189;-74
2020/12/08 03:50:49;;;;;;;42.30;17.00;;;2.90;94.30;;;;;;5039732;28;20314;-75
2020/12/08 03:53:15;;;;;;;42.87;16.83;;;2.90;94.40;;;;;;5037309;28;20193;-75
2020/12/08 03:55:41;;;;;;;41.60;15.73;;;3.00;94.30;;;;;;5036383;28;20181;-75
2020/12/08 03:58:07;;;;;;;45.13;16.63;;;2.90;94.30;;;;;;5031545;28;20219;-74
2020/12/08 04:00:33;;;;;;;38.20;15.63;;;3.00;94.20;;;;;;5030786;28;20720;-74
2020/12/08 04:02:59;;;;;;;40.80;15.10;;;3.00;94.20;;;;;;5032191;28;20439;-75
2020/12/08 04:05:24;;;;;;;42.37;17.57;;;3.00;94.10;;;;;;5032481;28;20609;-73
2020/12/08 04:07:50;;;;;;;50.47;20.00;;;2.90;94.00;;;;;;5036349;28;20196;-74
2020/12/08 04:10:16;;;;;;;47.17;18.07;;;2.90;94.00;;;;;;5036621;28;20252;-75
2020/12/08 04:12:41;;;;;;;39.13;16.10;;;2.80;93.90;;;;;;5034677;28;20660;-72
2020/12/08 04:15:07;;;;;;;41.10;16.67;;;2.80;94.00;;;;;;5034953;28;20684;-75
2020/12/08 04:17:33;;;;;;;38.83;16.27;;;2.80;94.10;;;;;;5034916;28;20268;-73
2020/12/08 04:19:59;;;;;;;40.60;16.27;;;2.70;94.10;;;;;;5032321;28;20634;-76
2020/12/08 04:22:24;;;;;;;42.73;17.30;;;2.70;94.10;;;;;;5032381;28;20336;-74
2020/12/08 04:24:50;;;;;;;35.20;15.23;;;2.60;94.20;;;;;;5035364;28;20729;-73
2020/12/08 04:27:16;;;;;;;44.33;18.03;;;2.60;94.40;;;;;;5036320;28;20189;-75
2020/12/08 04:29:41;;;;;;;44.40;17.37;;;2.60;94.40;;;;;;5036560;28;20205;-72
2020/12/08 04:32:07;;;;;;;40.60;17.93;;;2.60;94.40;;;;;;5036280;28;20181;-75
2020/12/08 04:34:33;;;;;;;44.43;16.90;;;2.50;94.50;;;;;;5035406;28;20404;-75
2020/12/08 04:37:00;;;;;;;42.10;18.08;;;2.50;94.70;;;;;;5035398;28;20196;-74
2020/12/08 04:39:26;;;;;;;41.30;17.38;;;2.50;94.80;;;;;;5034307;28;20700;-74
2020/12/08 04:41:56;;;;;;;41.28;15.65;;;2.50;94.90;;;;;;5033598;28;20185;-74
2020/12/08 04:44:22;;;;;;;47.88;19.25;;;2.50;94.90;;;;;;5035430;28;20189;-73
2020/12/08 04:46:55;;;;;;;41.57;16.63;;;2.50;94.80;;;;;;5035723;28;20193;-75
2020/12/08 04:49:25;;;;;;;39.35;16.15;;;2.50;94.90;;;;;;5034446;28;20440;-73
2020/12/08 04:51:51;;;;;;;40.53;16.08;;;2.40;94.70;;;;;;5033517;28;20268;-73
2020/12/08 04:54:17;;;;;;;38.88;16.23;;;2.40;94.70;;;;;;5031031;28;20185;-73
2020/12/08 04:56:49;;;;;;;47.30;17.33;;;2.40;94.80;;;;;;5033468;28;20177;-74
2020/12/08 04:59:24;;;;;;;38.95;17.13;;;2.40;94.80;;;;;;5033567;28;20212;-74
2020/12/08 05:01:50;;;;;;;46.15;17.48;;;2.40;94.80;;;;;;5031170;28;20564;-74
2020/12/08 05:04:25;;;;;;;43.95;17.60;;;2.50;94.80;;;;;;5033438;28;20427;-75
2020/12/08 05:07:05;;;;;;;43.78;17.55;;;2.50;94.70;;;;;;5033790;28;20185;-73
2020/12/08 05:09:31;;;;;;;45.22;17.20;;;2.60;94.60;;;;;;5032839;28;20283;-76
2020/12/08 05:11:59;;;;;;;45.67;17.70;;;2.60;94.70;;;;;;5033601;28;20323;-74
2020/12/08 05:14:26;;;;;;;44.35;17.15;;;2.60;94.60;;;;;;5021705;28;20428;-73
2020/12/08 05:17:04;;;;;;;41.63;16.77;;;2.60;94.60;;;;;;5031663;28;20248;-73
2020/12/08 05:19:30;;;;;;;43.90;16.65;;;2.70;94.60;;;;;;5021176;28;20672;-75
2020/12/08 05:21:56;;;;;;;40.13;15.93;;;2.80;94.30;;;;;;5033161;28;20209;-75
2020/12/08 05:24:29;;;;;;;43.40;17.80;;;2.80;94.00;;;;;;5025647;28;20435;-73
2020/12/08 05:26:59;;;;;;;42.15;16.45;;;2.80;93.70;;;;;;5029365;28;20942;-76
2020/12/08 05:29:27;;;;;;;50.05;18.60;;;2.90;93.50;;;;;;5030963;28;20830;-74
2020/12/08 05:31:53;;;;;;;46.97;18.00;;;2.90;93.40;;;;;;5030929;28;20181;-74
2020/12/08 05:34:21;;;;;;;48.70;17.58;;;2.90;93.40;;;;;;5029888;28;20203;-74
2020/12/08 05:36:52;;;;;;;45.15;18.90;;;2.90;93.30;;;;;;5029746;28;20189;-75
2020/12/08 05:39:19;;;;;;;49.22;19.05;;;2.80;93.40;;;;;;5028630;28;20232;-74
2020/12/08 05:41:46;;;;;;;50.15;17.27;;;2.80;93.50;;;;;;5026464;28;20186;-75
2020/12/08 05:44:26;;;;;;;50.25;19.02;;;2.90;93.60;;;;;;5021185;28;20200;-73
2020/12/08 05:46:52;;;;;;;36.03;16.45;;;2.80;93.50;;;;;;5028572;28;20193;-73
2020/12/08 05:49:19;;;;;;;48.10;17.70;;;2.90;93.50;;;;;;5029749;28;20609;-74
2020/12/08 05:51:47;;;;;;;39.67;16.25;;;2.80;93.20;;;;;;5028537;28;20189;-73
2020/12/08 05:54:20;;;;;;;43.00;18.63;;;2.70;93.20;;;;;;5016629;28;20189;-74
2020/12/08 05:56:50;;;;;;;48.25;18.58;;;2.60;93.50;;;;;;5014057;28;20193;-75
2020/12/08 05:59:29;;;;;;;41.90;17.42;;;2.60;93.80;;;;;;5027369;28;20247;-74
2020/12/08 06:01:56;;;;;;;44.47;17.30;;;2.60;93.90;;;;;;5030028;28;20184;-73
2020/12/08 06:04:22;;;;;;;41.13;17.05;;;2.70;94.10;;;;;;5029431;28;20547;-73
2020/12/08 06:06:52;;;;;;;41.08;17.50;;;2.70;93.80;;;;;;5029922;28;20538;-75
2020/12/08 06:09:22;;;;;;;49.75;18.02;;;2.80;93.60;;;;;;5028906;28;20231;-75
2020/12/08 06:11:48;;;;;;;52.70;19.63;;;2.80;93.50;;;;;;5029940;28;20235;-74
2020/12/08 06:14:14;;;;;;;38.80;16.50;;;2.80;93.50;;;;;;5029397;28;20185;-73
2020/12/08 06:16:40;;;;;;;45.90;18.23;;;2.80;93.70;;;;;;5030947;28;20235;-74
2020/12/08 06:19:05;;;;;;;41.80;17.13;;;2.90;93.60;;;;;;5029941;28;20188;-74
2020/12/08 06:21:37;;;;;;;50.43;17.87;;;3.00;93.30;;;;;;5030047;28;20185;-73
2020/12/08 06:24:04;;;;;;;45.63;19.27;;;3.00;93.20;;;;;;5029562;28;20181;-73
2020/12/08 06:26:40;;;;;;;56.47;20.33;;;3.00;92.90;;;;;;5028453;28;20189;-74
2020/12/08 06:29:10;;;;;;;41.53;16.80;;;3.10;92.80;;;;;;5017692;28;20192;-72
2020/12/08 06:31:47;;;;;;;46.17;18.90;;;3.10;92.90;;;;;;5028252;28;20215;-75
2020/12/08 06:34:39;;;;;;;50.25;19.02;;;3.00;93.00;;;;;;5029553;28;20264;-73
2020/12/08 06:37:09;;;;;;;40.60;17.48;;;3.00;93.30;;;;;;5028271;28;20189;-74
2020/12/08 06:39:35;;;;;;;52.15;19.45;;;3.00;93.40;;;;;;5028387;28;20712;-74
2020/12/08 06:42:13;;;;;;;48.10;18.63;;;3.00;93.40;;;;;;5026141;28;20201;-73
2020/12/08 06:44:39;;;;;;;45.40;17.55;;;2.90;93.70;;;;;;5027365;28;20201;-73
2020/12/08 06:47:06;;;;;;;47.65;18.55;;;2.90;93.80;;;;;;5028428;28;20177;-75
2020/12/08 06:49:36;;;;;;;53.72;20.08;;;2.80;93.80;;;;;;5032586;28;20216;-73
2020/12/08 06:52:02;;;;;;;46.35;18.90;;;2.80;93.80;;;;;;5033806;28;20260;-75
2020/12/08 06:54:28;;;;;;;47.30;19.20;;;2.70;93.80;;;;;;5033159;28;20181;-73
2020/12/08 06:57:05;;;;;;;49.80;18.80;;;2.70;93.90;;;;;;5035204;28;20185;-74
2020/12/08 06:59:31;;;;;;;51.63;20.92;;;2.60;94.20;;;;;;5034539;28;20543;-74
2020/12/08 07:01:58;;;;;;;45.80;17.50;;;2.60;94.30;;;;;;5033814;28;20200;-73
2020/12/08 07:04:28;;;;;;;47.00;18.13;;;2.50;94.40;;;;;;5033651;28;20261;-75
2020/12/08 07:06:57;;;;;;;49.70;18.95;;;2.40;94.40;;;;;;5034649;28;20193;-71
2020/12/08 07:09:23;;;;;;;46.67;18.75;;;2.40;94.50;;;;;;5034186;28;20208;-73
2020/12/08 07:12:02;;;;;;;45.57;18.40;;;2.30;94.50;;;;;;5033656;28;20185;-75
2020/12/08 07:14:29;;;;;;;53.08;18.67;;;2.30;94.50;;;;;;5033416;28;20492;-74
2020/12/08 07:16:55;;;;;;;45.33;17.30;;;2.20;94.80;;;;;;5034684;28;20184;-73
2020/12/08 07:19:21;;;;;;;40.25;17.13;;;2.20;95.00;;;;;;5035664;28;20212;-74
2020/12/08 07:22:00;;;;;;;44.07;17.43;;;2.20;95.10;;;;;;5036542;28;20245;-75
2020/12/08 07:24:26;;;;;;;46.92;18.00;;;2.20;95.10;;;;;;5034652;28;20185;-73
2020/12/08 07:27:00;;;;;;;47.38;19.10;;;2.20;95.20;;;;;;5037405;28;20263;-75
2020/12/08 07:29:26;;;;;;;44.53;18.33;;;2.20;95.10;;;;;;5035106;28;20212;-72
2020/12/08 07:31:53;;;;;;;58.10;20.90;;;2.20;95.00;;;;;;5033249;28;20197;-75
2020/12/08 07:34:18;;;;;;;48.63;20.20;;;2.20;94.90;;;;;;5032908;28;20439;-72
2020/12/08 07:36:44;;;;;;;51.50;18.37;;;2.20;94.80;;;;;;5031632;28;20189;-74
2020/12/08 07:39:19;;;;;;;46.13;18.70;;;2.30;94.60;;;;;;5032592;28;20288;-74
2020/12/08 07:41:45;;;;;;;47.00;18.13;;;2.20;94.60;;;;;;5032689;28;20181;-73
2020/12/08 07:44:13;;;;;;;54.17;19.75;;;2.30;94.60;;;;;;5031538;28;20582;-72
2020/12/08 07:46:50;;;;;;;50.38;19.70;;;2.30;94.60;;;;;;5032456;28;20181;-74
2020/12/08 07:49:16;;;;;;;51.30;19.48;;;2.30;94.30;;;;;;5033126;28;20229;-76
2020/12/08 07:51:42;;;;;;;50.15;18.92;;;2.30;94.20;;;;;;5032589;28;20306;-73
2020/12/08 07:54:09;;;;;;;49.70;18.93;;;2.20;94.20;;;;;;5032200;28;20209;-74
2020/12/08 07:56:36;;;;;;;54.70;20.38;;;2.20;94.30;;;;;;5030016;28;20432;-75
2020/12/08 07:59:03;;;;;;;54.78;20.52;;;2.20;94.50;;;;;;5034662;28;20189;-75
2020/12/08 08:01:36;;;;;;;53.72;21.92;;;2.20;94.50;;;;;;5034387;28;20212;-72
2020/12/08 08:04:02;;;;;;;59.88;19.90;;;2.20;94.60;;;;;;5033982;28;20656;-74
2020/12/08 08:06:28;;;;;;;49.07;19.23;;;2.20;94.70;;;;;;5032443;28;20185;-73
2020/12/08 08:08:54;;;;;;;55.33;21.10;;;2.20;94.90;;;;;;5032712;28;20225;-74
2020/12/08 08:11:20;;;;;;;57.35;20.70;;;2.20;95.10;;;;;;5033546;28;20268;-73
2020/12/08 08:13:46;;;;;;;57.77;21.83;;;2.20;95.20;;;;;;5030760;28;20321;-73
2020/12/08 08:16:13;;;;;;;50.80;18.98;;;2.30;95.20;;;;;;5032359;28;20824;-74
2020/12/08 08:18:40;;;;;;;47.15;18.95;;;2.30;95.10;;;;;;5032033;28;20185;-73
2020/12/08 08:21:06;;;;;;;52.65;19.95;;;2.40;95.00;;;;;;5031701;28;20209;-73
2020/12/08 08:23:33;;;;;;;48.97;18.48;;;2.40;94.80;;;;;;5016993;28;20190;-73
2020/12/08 08:25:59;;;;;;;53.63;19.20;;;2.40;94.60;;;;;;5030231;28;20185;-75
2020/12/08 08:28:25;;;;;;;47.87;19.83;;;2.40;94.60;;;;;;5031971;28;20671;-74
2020/12/08 08:30:52;;;;;;;56.22;22.67;;;2.40;94.60;;;;;;5032108;28;21077;-76
2020/12/08 08:33:18;;;;;;;45.97;19.55;;;2.40;94.70;;;;;;5031142;28;20197;-75
2020/12/08 08:35:44;;;;;;;60.10;22.77;;;2.30;94.80;;;;;;5031489;28;20671;-73
2020/12/08 08:38:10;;;;;;;53.17;20.45;;;2.30;94.90;;;;;;5031869;28;20428;-75
2020/12/08 08:40:36;;;;;;;50.00;20.00;;;2.40;94.90;;;;;;5030627;28;20205;-74
2020/12/08 08:43:01;;;;;;;50.53;19.80;;;2.40;94.70;;;;;;5031570;28;20664;-75
2020/12/08 08:45:28;;;;;;;50.23;19.60;;;2.40;94.70;;;;;;5029764;28;20224;-74
2020/12/08 08:47:53;;;;;;;42.15;18.10;;;2.40;94.70;;;;;;5028494;28;20192;-75
2020/12/08 08:50:19;;;;;;;55.27;20.47;;;2.50;94.50;;;;;;5020846;28;20217;-75
2020/12/08 08:52:45;;;;;;;47.77;18.97;;;2.50;94.30;;;;;;5032637;28;20570;-75
2020/12/08 08:55:11;;;;;;;51.87;19.43;;;2.60;94.10;;;;;;5032202;28;20515;-73
2020/12/08 08:57:38;;;;;;;50.80;20.00;;;2.70;93.70;;;;;;5031274;28;20507;-75
2020/12/08 09:00:07;;;;;;;49.65;17.90;;;2.70;93.50;;;;;;5031403;28;20205;-73
2020/12/08 09:02:32;;;;;;;50.80;20.20;;;2.80;93.40;;;;;;5026994;28;20297;-74
2020/12/08 09:04:58;;;;;;;45.57;18.87;;;2.90;92.80;;;;;;5021421;28;20363;-75
2020/12/08 09:07:26;;;;;;;44.50;18.43;;;3.00;92.50;;;;;;5029392;28;20443;-74
2020/12/08 09:09:52;;;;;;;45.22;18.25;;;3.00;92.50;;;;;;5030714;28;20485;-73
2020/12/08 09:12:18;;;;;;;55.05;20.70;;;3.10;92.30;;;;;;5026314;28;20219;-73
2020/12/08 09:14:45;;;;;;;55.37;21.80;;;3.20;92.20;;;;;;5020320;28;20182;-75
2020/12/08 09:17:11;;;;;;;50.80;20.20;;;3.20;92.10;;;;;;5014234;28;20955;-74
2020/12/08 09:19:36;;;;;;;51.87;19.63;;;3.20;92.10;;;;;;5021781;28;20205;-73
2020/12/08 09:22:03;;;;;;;41.00;17.73;;;3.30;92.00;;;;;;5032793;28;20435;-76
2020/12/08 09:24:29;;;;;;;43.20;18.70;;;3.40;91.50;;;;;;5031336;28;20196;-76
2020/12/08 09:26:56;;;;;;;48.53;20.15;;;3.40;91.20;;;;;;5031302;28;20181;-75
2020/12/08 09:29:23;;;;;;;45.95;18.67;;;3.40;91.30;;;;;;5032037;28;20303;-74
2020/12/08 09:31:56;;;;;;;45.60;19.10;;;3.40;91.40;;;;;;5031716;28;20209;-74
2020/12/08 09:34:23;;;;;;;40.78;18.00;;;3.40;90.90;;;;;;5032759;28;20576;-73
2020/12/08 09:36:50;;;;;;;49.33;19.15;;;3.50;90.80;;;;;;5031685;28;20189;-75
2020/12/08 09:39:16;;;;;;;60.47;20.85;;;3.50;90.80;;;;;;5032231;28;20204;-72
2020/12/08 09:41:42;;;;;;;51.00;19.93;;;3.60;90.50;;;;;;5029528;28;20197;-75
2020/12/08 09:44:11;;;;;;;49.20;19.10;;;3.60;90.10;;;;;;5028705;28;20212;-76
2020/12/08 09:46:41;;;;;;;44.20;17.95;;;3.60;90.20;;;;;;5030594;28;20455;-74
2020/12/08 09:49:07;;;;;;;46.33;18.05;;;3.60;90.00;;;;;;5030511;28;20189;-74
2020/12/08 09:51:34;;;;;;;47.50;17.83;;;3.60;89.20;;;;;;5030732;28;20213;-73
2020/12/08 09:54:00;;;;;;;41.95;17.73;;;3.70;89.20;;;;;;5029377;28;20181;-74
2020/12/08 09:56:26;;;;;;;41.13;17.27;;;3.70;88.70;;;;;;5031785;28;20248;-73
2020/12/08 09:58:55;;;;;;;50.50;19.57;;;3.70;88.90;;;;;;5036753;28;20181;-73
2020/12/08 10:01:39;;;;;;;54.10;19.35;;;3.70;89.00;;;;;;5028390;28;20192;-74
2020/12/08 10:04:05;;;;;;;54.45;19.75;;;3.80;89.20;;;;;;5065230;28;20603;-73
2020/12/08 10:06:31;;;;;;;50.53;19.67;;;3.80;89.30;;;;;;5035889;28;20188;-72
2020/12/08 10:08:57;;;;;;;50.17;19.80;;;3.80;89.30;;;;;;5034595;28;20189;-75
2020/12/08 10:11:24;;;;;;;44.90;19.50;;;3.90;89.50;;;;;;5031312;28;20609;-74
2020/12/08 10:13:50;;;;;;;47.58;18.42;;;3.80;88.60;;;;;;5030112;28;20264;-75
2020/12/08 10:16:24;;;;;;;46.35;17.77;;;3.80;88.60;;;;;;5032214;28;20189;-73
2020/12/08 10:18:51;;;;;;;45.60;19.25;;;3.90;88.30;;;;;;5030226;28;20678;-74
2020/12/08 10:21:24;;;;;;;43.05;18.00;;;3.90;87.80;;;;;;5036520;28;20192;-74
2020/12/08 10:23:51;;;;;;;52.55;17.35;;;3.90;87.80;;;;;;5036136;28;20177;-75
2020/12/08 10:26:17;;;;;;;46.92;18.30;;;4.00;87.30;;;;;;5035264;28;20269;-73
2020/12/08 10:28:43;;;;;;;43.60;17.80;;;4.10;87.10;;;;;;5034961;28;20195;-76
2020/12/08 10:31:09;;;;;;;50.80;20.40;;;4.20;87.60;;;;;;5035365;28;20213;-72
2020/12/08 10:33:35;;;;;;;41.30;16.77;;;4.40;87.40;;;;;;5035307;28;20177;-72
2020/12/08 10:36:01;;;;;;;43.93;17.80;;;4.50;85.90;;;;;;5035386;28;20173;-72
2020/12/08 10:38:28;;;;;;;46.35;18.40;;;4.60;85.00;;;;;;5036113;28;20420;-73
2020/12/08 10:40:55;;;;;;;47.17;18.03;;;4.80;84.60;;;;;;5034986;28;20200;-74
2020/12/08 10:43:21;;;;;;;47.70;18.58;;;4.90;84.10;;;;;;5034189;28;20446;-74
2020/12/08 10:45:47;;;;;;;43.07;17.53;;;5.00;83.10;;;;;;5033668;28;20558;-74
2020/12/08 10:48:14;;;;;;;43.65;18.65;;;5.10;82.50;;;;;;5033311;28;20434;-72
2020/12/08 10:50:40;;;;;;;46.00;18.20;;;5.20;82.20;;;;;;5034035;28;20217;-74
2020/12/08 10:53:06;;;;;;;51.23;19.80;;;5.30;81.70;;;;;;5032725;28;20438;-74
2020/12/08 10:55:32;;;;;;;41.57;17.93;;;5.30;81.10;;;;;;5032870;28;20185;-73
2020/12/08 10:57:58;;;;;;;43.33;18.03;;;5.30;81.40;;;;;;5032579;28;20439;-74
2020/12/08 11:00:24;;;;;;;42.13;19.40;;;5.10;81.70;;;;;;5033695;28;20208;-76
2020/12/08 11:02:50;;;;;;;44.50;18.63;;;5.00;82.80;;;;;;5033500;28;20196;-72
2020/12/08 11:05:15;;;;;;;46.40;18.07;;;5.00;83.40;;;;;;5034558;28;20963;-74
2020/12/08 11:07:41;;;;;;;42.20;18.70;;;5.00;83.60;;;;;;5034757;28;20181;-74
2020/12/08 11:10:07;;;;;;;48.30;18.20;;;5.00;83.40;;;;;;5033611;28;20621;-73
2020/12/08 11:12:33;;;;;;;43.47;19.17;;;4.80;82.70;;;;;;5033249;28;20174;-71
2020/12/08 11:14:59;;;;;;;45.17;17.53;;;4.80;83.10;;;;;;5022267;28;20186;-74
2020/12/08 11:17:25;;;;;;;48.23;17.90;;;4.70;83.10;;;;;;5062377;28;20545;-74
2020/12/08 11:19:50;;;;;;;44.77;18.90;;;4.70;83.70;;;;;;5033728;28;20458;-73
2020/12/08 11:22:16;;;;;;;43.20;18.33;;;4.70;83.70;;;;;;5033520;28;20447;-72
2020/12/08 11:24:42;;;;;;;47.47;18.60;;;4.70;83.70;;;;;;5032550;28;20264;-73
2020/12/08 11:27:13;;;;;;;44.90;18.15;;;4.70;83.70;;;;;;5032311;28;20189;-72
2020/12/08 11:29:39;;;;;;;44.05;18.42;;;4.70;83.80;;;;;;5032360;28;20213;-74
2020/12/08 11:32:04;;;;;;;47.90;18.60;;;4.70;84.30;;;;;;5032404;28;20233;-74
2020/12/08 11:34:30;;;;;;;38.17;16.87;;;4.70;84.40;;;;;;5033645;28;20216;-73
2020/12/08 11:36:56;;;;;;;45.10;19.30;;;4.70;84.90;;;;;;5033266;28;20196;-72
2020/12/08 11:39:22;;;;;;;42.53;18.23;;;4.80;84.90;;;;;;5031165;28;20251;-75
2020/12/08 11:41:48;;;;;;;42.25;18.40;;;4.80;85.00;;;;;;5032377;28;20186;-73
2020/12/08 11:44:14;;;;;;;48.53;18.87;;;4.90;84.30;;;;;;5016486;28;20289;-74
2020/12/08 11:46:39;;;;;;;46.20;17.47;;;5.00;83.60;;;;;;5016755;28;20249;-74
2020/12/08 11:49:06;;;;;;;42.27;18.07;;;5.00;83.00;;;;;;5035524;28;20286;-74
2020/12/08 11:51:33;;;;;;;45.20;17.43;;;5.00;83.00;;;;;;5036298;28;20556;-73
2020/12/08 11:53:59;;;;;;;38.97;17.40;;;5.10;82.80;;;;;;5023658;28;20429;-75
2020/12/08 11:56:26;;;;;;;37.87;16.73;;;5.10;82.40;;;;;;5028310;28;21114;-74
2020/12/08 11:58:52;;;;;;;44.15;19.45;;;5.20;82.10;;;;;;5023707;28;20507;-73
2020/12/08 12:01:19;;;;;;;42.00;16.60;;;5.20;82.20;;;;;;5027796;28;20273;-75
2020/12/08 12:03:44;;;;;;;41.65;17.05;;;5.20;81.90;;;;;;5012607;28;20194;-72
2020/12/08 12:06:13;;;;;;;42.70;17.50;;;5.30;82.10;;;;;;5032125;28;20662;-74
2020/12/08 12:08:40;;;;;;;41.33;16.58;;;5.40;81.70;;;;;;5031284;28;20268;-74
2020/12/08 12:11:07;;;;;;;43.65;18.63;;;5.40;81.20;;;;;;5030927;28;20287;-75
2020/12/08 12:13:33;;;;;;;38.85;16.33;;;5.50;80.90;;;;;;5017893;28;20194;-76
2020/12/08 12:15:58;;;;;;;40.90;16.00;;;5.50;80.80;;;;;;5024632;28;20576;-75
2020/12/08 12:18:25;;;;;;;43.87;16.17;;;5.30;80.90;;;;;;5024188;28;20416;-75
2020/12/08 12:20:50;;;;;;;40.17;17.13;;;5.40;81.10;;;;;;5020863;28;20497;-76
2020/12/08 12:23:16;;;;;;;39.00;16.00;;;5.40;80.50;;;;;;5021552;28;20268;-74
2020/12/08 12:25:42;;;;;;;37.87;15.23;;;5.40;80.00;;;;;;5021702;28;20647;-74
2020/12/08 12:28:08;;;;;;;35.83;16.10;;;5.40;79.70;;;;;;5025203;28;20189;-75
2020/12/08 12:30:34;;;;;;;34.50;13.50;;;5.50;79.60;;;;;;5024470;28;20314;-74
2020/12/08 12:33:00;;;;;;;33.50;14.23;;;5.60;78.90;;;;;;5031214;28;20515;-76
2020/12/08 12:35:26;;;;;;;31.43;13.90;;;5.70;77.30;;;;;;5024501;28;20919;-74